sensor_id;sensor_type;location;lat;lon;timestamp;P1;durP1;ratioP1;P2;durP2;ratioP2
21330;SDS011;10824;51.632;4.950;2022-07-21T00:02:50;7.80;;;3.60;;
21330;SDS011;10824;51.632;4.950;2022-07-21T00:05:18;5.70;;;3.50;;
21330;SDS011;10824;51.632;4.950;2022-07-21T00:07:46;6.65;;;3.38;;
21330;SDS011;10824;51.632;4.950;2022-07-21T00:10:13;6.05;;;4.03;;
21330;SDS011;10824;51.632;4.950;2022-07-21T00:12:41;8.77;;;4.13;;
21330;SDS011;10824;51.632;4.950;2022-07-21T00:15:09;6.05;;;3.75;;
21330;SDS011;10824;51.632;4.950;2022-07-21T00:17:37;5.57;;;3.50;;
21330;SDS011;10824;51.632;4.950;2022-07-21T00:20:06;7.32;;;4.20;;
21330;SDS011;10824;51.632;4.950;2022-07-21T00:22:34;6.22;;;4.35;;
21330;SDS011;10824;51.632;4.950;2022-07-21T00:25:02;7.18;;;4.13;;
21330;SDS011;10824;51.632;4.950;2022-07-21T00:27:30;7.32;;;3.97;;
21330;SDS011;10824;51.632;4.950;2022-07-21T00:29:57;5.97;;;3.38;;
21330;SDS011;10824;51.632;4.950;2022-07-21T00:32:24;9.85;;;3.70;;
21330;SDS011;10824;51.632;4.950;2022-07-21T00:34:57;6.55;;;4.13;;
21330;SDS011;10824;51.632;4.950;2022-07-21T00:37:24;11.73;;;4.60;;
21330;SDS011;10824;51.632;4.950;2022-07-21T00:39:53;7.90;;;3.92;;
21330;SDS011;10824;51.632;4.950;2022-07-21T00:42:24;9.43;;;4.28;;
21330;SDS011;10824;51.632;4.950;2022-07-21T00:44:55;8.82;;;4.18;;
21330;SDS011;10824;51.632;4.950;2022-07-21T00:47:24;8.65;;;5.18;;
21330;SDS011;10824;51.632;4.950;2022-07-21T00:49:52;7.22;;;3.70;;
21330;SDS011;10824;51.632;4.950;2022-07-21T00:52:20;8.18;;;4.70;;
21330;SDS011;10824;51.632;4.950;2022-07-21T00:54:47;5.57;;;3.42;;
21330;SDS011;10824;51.632;4.950;2022-07-21T00:57:14;9.80;;;4.63;;
21330;SDS011;10824;51.632;4.950;2022-07-21T00:59:42;7.95;;;4.10;;
21330;SDS011;10824;51.632;4.950;2022-07-21T01:02:11;8.70;;;4.05;;
21330;SDS011;10824;51.632;4.950;2022-07-21T01:04:39;6.40;;;4.55;;
21330;SDS011;10824;51.632;4.950;2022-07-21T01:07:06;6.90;;;4.03;;
21330;SDS011;10824;51.632;4.950;2022-07-21T01:09:34;6.35;;;4.03;;
21330;SDS011;10824;51.632;4.950;2022-07-21T01:12:02;7.32;;;3.97;;
21330;SDS011;10824;51.632;4.950;2022-07-21T01:14:29;6.43;;;3.95;;
21330;SDS011;10824;51.632;4.950;2022-07-21T01:16:57;9.88;;;4.60;;
21330;SDS011;10824;51.632;4.950;2022-07-21T01:19:24;8.05;;;4.43;;
21330;SDS011;10824;51.632;4.950;2022-07-21T01:21:51;7.53;;;4.45;;
21330;SDS011;10824;51.632;4.950;2022-07-21T01:24:18;8.52;;;4.93;;
21330;SDS011;10824;51.632;4.950;2022-07-21T01:26:46;8.13;;;4.32;;
21330;SDS011;10824;51.632;4.950;2022-07-21T01:29:15;7.57;;;3.90;;
21330;SDS011;10824;51.632;4.950;2022-07-21T01:31:44;14.82;;;6.38;;
21330;SDS011;10824;51.632;4.950;2022-07-21T01:34:13;8.68;;;4.20;;
21330;SDS011;10824;51.632;4.950;2022-07-21T01:36:41;7.80;;;4.20;;
21330;SDS011;10824;51.632;4.950;2022-07-21T01:39:08;6.80;;;4.10;;
21330;SDS011;10824;51.632;4.950;2022-07-21T01:41:54;8.65;;;4.68;;
21330;SDS011;10824;51.632;4.950;2022-07-21T01:44:21;10.90;;;5.63;;
21330;SDS011;10824;51.632;4.950;2022-07-21T01:46:50;11.30;;;4.78;;
21330;SDS011;10824;51.632;4.950;2022-07-21T01:49:18;8.90;;;4.30;;
21330;SDS011;10824;51.632;4.950;2022-07-21T01:51:47;9.00;;;4.13;;
21330;SDS011;10824;51.632;4.950;2022-07-21T01:54:14;7.70;;;4.53;;
21330;SDS011;10824;51.632;4.950;2022-07-21T01:56:49;5.20;;;3.83;;
21330;SDS011;10824;51.632;4.950;2022-07-21T01:59:15;8.93;;;4.78;;
21330;SDS011;10824;51.632;4.950;2022-07-21T02:01:42;8.32;;;3.95;;
21330;SDS011;10824;51.632;4.950;2022-07-21T02:04:10;7.38;;;4.45;;
21330;SDS011;10824;51.632;4.950;2022-07-21T02:06:37;12.23;;;5.47;;
21330;SDS011;10824;51.632;4.950;2022-07-21T02:09:04;7.95;;;4.88;;
21330;SDS011;10824;51.632;4.950;2022-07-21T02:11:33;8.00;;;4.35;;
21330;SDS011;10824;51.632;4.950;2022-07-21T02:14:00;9.52;;;4.10;;
21330;SDS011;10824;51.632;4.950;2022-07-21T02:16:28;9.48;;;4.97;;
21330;SDS011;10824;51.632;4.950;2022-07-21T02:18:55;9.65;;;5.00;;
21330;SDS011;10824;51.632;4.950;2022-07-21T02:21:23;7.80;;;4.38;;
21330;SDS011;10824;51.632;4.950;2022-07-21T02:23:50;12.43;;;3.65;;
21330;SDS011;10824;51.632;4.950;2022-07-21T02:26:18;8.10;;;4.43;;
21330;SDS011;10824;51.632;4.950;2022-07-21T02:28:45;8.75;;;4.20;;
21330;SDS011;10824;51.632;4.950;2022-07-21T02:31:12;6.95;;;4.15;;
21330;SDS011;10824;51.632;4.950;2022-07-21T02:33:39;7.28;;;4.35;;
21330;SDS011;10824;51.632;4.950;2022-07-21T02:36:07;7.50;;;4.47;;
21330;SDS011;10824;51.632;4.950;2022-07-21T02:38:34;8.90;;;4.57;;
21330;SDS011;10824;51.632;4.950;2022-07-21T02:41:01;9.77;;;5.10;;
21330;SDS011;10824;51.632;4.950;2022-07-21T02:43:31;9.52;;;5.22;;
21330;SDS011;10824;51.632;4.950;2022-07-21T02:45:58;7.20;;;4.20;;
21330;SDS011;10824;51.632;4.950;2022-07-21T02:48:25;9.35;;;5.07;;
21330;SDS011;10824;51.632;4.950;2022-07-21T02:50:52;11.40;;;6.10;;
21330;SDS011;10824;51.632;4.950;2022-07-21T02:53:19;8.43;;;5.00;;
21330;SDS011;10824;51.632;4.950;2022-07-21T02:55:50;10.27;;;4.97;;
21330;SDS011;10824;51.632;4.950;2022-07-21T02:58:22;9.35;;;5.32;;
21330;SDS011;10824;51.632;4.950;2022-07-21T03:00:54;7.50;;;4.82;;
21330;SDS011;10824;51.632;4.950;2022-07-21T03:03:24;9.10;;;5.10;;
21330;SDS011;10824;51.632;4.950;2022-07-21T03:05:53;7.57;;;4.38;;
21330;SDS011;10824;51.632;4.950;2022-07-21T03:08:20;8.20;;;4.53;;
21330;SDS011;10824;51.632;4.950;2022-07-21T03:10:48;8.88;;;5.32;;
21330;SDS011;10824;51.632;4.950;2022-07-21T03:13:16;8.80;;;5.07;;
21330;SDS011;10824;51.632;4.950;2022-07-21T03:15:43;7.18;;;4.60;;
21330;SDS011;10824;51.632;4.950;2022-07-21T03:18:10;9.48;;;4.75;;
21330;SDS011;10824;51.632;4.950;2022-07-21T03:20:38;8.40;;;5.15;;
21330;SDS011;10824;51.632;4.950;2022-07-21T03:23:06;8.20;;;4.53;;
21330;SDS011;10824;51.632;4.950;2022-07-21T03:25:34;9.27;;;4.35;;
21330;SDS011;10824;51.632;4.950;2022-07-21T03:28:02;7.07;;;4.55;;
21330;SDS011;10824;51.632;4.950;2022-07-21T03:30:29;7.75;;;4.05;;
21330;SDS011;10824;51.632;4.950;2022-07-21T03:32:57;7.15;;;4.10;;
21330;SDS011;10824;51.632;4.950;2022-07-21T03:35:24;7.30;;;4.07;;
21330;SDS011;10824;51.632;4.950;2022-07-21T03:37:52;11.50;;;4.85;;
21330;SDS011;10824;51.632;4.950;2022-07-21T03:40:23;6.63;;;4.25;;
21330;SDS011;10824;51.632;4.950;2022-07-21T03:42:52;8.77;;;4.93;;
21330;SDS011;10824;51.632;4.950;2022-07-21T03:45:21;9.10;;;4.82;;
21330;SDS011;10824;51.632;4.950;2022-07-21T03:47:48;8.32;;;4.55;;
21330;SDS011;10824;51.632;4.950;2022-07-21T03:50:16;7.60;;;4.40;;
21330;SDS011;10824;51.632;4.950;2022-07-21T03:52:44;9.20;;;4.10;;
21330;SDS011;10824;51.632;4.950;2022-07-21T03:55:12;7.28;;;4.13;;
21330;SDS011;10824;51.632;4.950;2022-07-21T03:57:46;8.50;;;4.43;;
21330;SDS011;10824;51.632;4.950;2022-07-21T04:00:19;7.65;;;4.32;;
21330;SDS011;10824;51.632;4.950;2022-07-21T04:02:52;8.80;;;4.03;;
21330;SDS011;10824;51.632;4.950;2022-07-21T04:05:19;7.40;;;4.20;;
21330;SDS011;10824;51.632;4.950;2022-07-21T04:07:47;7.30;;;4.07;;
21330;SDS011;10824;51.632;4.950;2022-07-21T04:10:17;8.93;;;3.80;;
21330;SDS011;10824;51.632;4.950;2022-07-21T04:12:50;7.60;;;3.92;;
21330;SDS011;10824;51.632;4.950;2022-07-21T04:15:17;13.73;;;5.07;;
21330;SDS011;10824;51.632;4.950;2022-07-21T04:17:45;7.05;;;3.65;;
21330;SDS011;10824;51.632;4.950;2022-07-21T04:20:13;12.38;;;5.15;;
21330;SDS011;10824;51.632;4.950;2022-07-21T04:22:41;6.03;;;3.55;;
21330;SDS011;10824;51.632;4.950;2022-07-21T04:25:10;6.72;;;4.15;;
21330;SDS011;10824;51.632;4.950;2022-07-21T04:27:38;8.85;;;3.60;;
21330;SDS011;10824;51.632;4.950;2022-07-21T04:30:06;9.68;;;4.00;;
21330;SDS011;10824;51.632;4.950;2022-07-21T04:32:34;10.05;;;3.70;;
21330;SDS011;10824;51.632;4.950;2022-07-21T04:35:02;5.80;;;3.50;;
21330;SDS011;10824;51.632;4.950;2022-07-21T04:37:30;6.82;;;3.85;;
21330;SDS011;10824;51.632;4.950;2022-07-21T04:39:58;9.85;;;4.32;;
21330;SDS011;10824;51.632;4.950;2022-07-21T04:42:25;8.00;;;3.33;;
21330;SDS011;10824;51.632;4.950;2022-07-21T04:44:53;12.77;;;4.18;;
21330;SDS011;10824;51.632;4.950;2022-07-21T04:47:20;12.13;;;5.00;;
21330;SDS011;10824;51.632;4.950;2022-07-21T04:49:47;8.00;;;3.83;;
21330;SDS011;10824;51.632;4.950;2022-07-21T04:52:14;6.85;;;3.90;;
21330;SDS011;10824;51.632;4.950;2022-07-21T04:54:41;10.82;;;3.75;;
21330;SDS011;10824;51.632;4.950;2022-07-21T04:57:08;13.95;;;3.88;;
21330;SDS011;10824;51.632;4.950;2022-07-21T04:59:36;5.82;;;3.17;;
21330;SDS011;10824;51.632;4.950;2022-07-21T05:02:03;10.68;;;3.70;;
21330;SDS011;10824;51.632;4.950;2022-07-21T05:04:31;7.22;;;3.60;;
21330;SDS011;10824;51.632;4.950;2022-07-21T05:06:58;6.97;;;3.60;;
21330;SDS011;10824;51.632;4.950;2022-07-21T05:09:25;8.65;;;3.97;;
21330;SDS011;10824;51.632;4.950;2022-07-21T05:11:52;10.35;;;3.85;;
21330;SDS011;10824;51.632;4.950;2022-07-21T05:14:20;6.70;;;3.63;;
21330;SDS011;10824;51.632;4.950;2022-07-21T05:16:47;8.05;;;3.58;;
21330;SDS011;10824;51.632;4.950;2022-07-21T05:19:14;8.98;;;3.65;;
21330;SDS011;10824;51.632;4.950;2022-07-21T05:21:41;13.38;;;4.47;;
21330;SDS011;10824;51.632;4.950;2022-07-21T05:24:08;10.93;;;4.60;;
21330;SDS011;10824;51.632;4.950;2022-07-21T05:26:35;7.97;;;4.28;;
21330;SDS011;10824;51.632;4.950;2022-07-21T05:29:03;9.40;;;4.22;;
21330;SDS011;10824;51.632;4.950;2022-07-21T05:31:30;10.65;;;4.40;;
21330;SDS011;10824;51.632;4.950;2022-07-21T05:33:57;9.35;;;4.45;;
21330;SDS011;10824;51.632;4.950;2022-07-21T05:36:24;10.95;;;4.82;;
21330;SDS011;10824;51.632;4.950;2022-07-21T05:38:51;25.25;;;7.28;;
21330;SDS011;10824;51.632;4.950;2022-07-21T05:41:19;11.35;;;5.38;;
21330;SDS011;10824;51.632;4.950;2022-07-21T05:43:48;16.77;;;6.35;;
21330;SDS011;10824;51.632;4.950;2022-07-21T05:46:15;14.07;;;6.28;;
21330;SDS011;10824;51.632;4.950;2022-07-21T05:48:42;19.48;;;6.45;;
21330;SDS011;10824;51.632;4.950;2022-07-21T05:51:10;20.90;;;8.07;;
21330;SDS011;10824;51.632;4.950;2022-07-21T05:53:44;17.90;;;7.18;;
21330;SDS011;10824;51.632;4.950;2022-07-21T05:56:11;14.75;;;7.45;;
21330;SDS011;10824;51.632;4.950;2022-07-21T05:58:38;18.67;;;6.93;;
21330;SDS011;10824;51.632;4.950;2022-07-21T06:01:05;13.00;;;6.07;;
21330;SDS011;10824;51.632;4.950;2022-07-21T06:03:39;14.98;;;6.57;;
21330;SDS011;10824;51.632;4.950;2022-07-21T06:06:12;16.58;;;6.75;;
21330;SDS011;10824;51.632;4.950;2022-07-21T06:08:40;11.63;;;5.80;;
21330;SDS011;10824;51.632;4.950;2022-07-21T06:11:09;22.33;;;7.68;;
21330;SDS011;10824;51.632;4.950;2022-07-21T06:13:38;15.02;;;6.55;;
21330;SDS011;10824;51.632;4.950;2022-07-21T06:16:05;14.25;;;7.70;;
21330;SDS011;10824;51.632;4.950;2022-07-21T06:18:33;17.25;;;7.47;;
21330;SDS011;10824;51.632;4.950;2022-07-21T06:21:01;20.75;;;7.78;;
21330;SDS011;10824;51.632;4.950;2022-07-21T06:23:28;20.48;;;7.82;;
21330;SDS011;10824;51.632;4.950;2022-07-21T06:25:56;14.80;;;6.75;;
21330;SDS011;10824;51.632;4.950;2022-07-21T06:28:23;16.67;;;7.00;;
21330;SDS011;10824;51.632;4.950;2022-07-21T06:30:50;17.50;;;7.53;;
21330;SDS011;10824;51.632;4.950;2022-07-21T06:33:18;17.33;;;7.22;;
21330;SDS011;10824;51.632;4.950;2022-07-21T06:35:45;16.23;;;6.63;;
21330;SDS011;10824;51.632;4.950;2022-07-21T06:38:12;18.70;;;7.68;;
21330;SDS011;10824;51.632;4.950;2022-07-21T06:40:40;18.27;;;7.68;;
21330;SDS011;10824;51.632;4.950;2022-07-21T06:43:10;19.25;;;7.47;;
21330;SDS011;10824;51.632;4.950;2022-07-21T06:45:52;20.98;;;7.53;;
21330;SDS011;10824;51.632;4.950;2022-07-21T06:48:20;27.23;;;10.10;;
21330;SDS011;10824;51.632;4.950;2022-07-21T06:50:52;17.02;;;7.45;;
21330;SDS011;10824;51.632;4.950;2022-07-21T06:53:22;18.13;;;7.30;;
21330;SDS011;10824;51.632;4.950;2022-07-21T06:55:51;14.38;;;7.68;;
21330;SDS011;10824;51.632;4.950;2022-07-21T06:58:25;23.42;;;10.00;;
21330;SDS011;10824;51.632;4.950;2022-07-21T07:00:53;22.30;;;8.32;;
21330;SDS011;10824;51.632;4.950;2022-07-21T07:03:23;19.33;;;8.18;;
21330;SDS011;10824;51.632;4.950;2022-07-21T07:05:50;19.77;;;8.35;;
21330;SDS011;10824;51.632;4.950;2022-07-21T07:08:18;17.50;;;7.78;;
21330;SDS011;10824;51.632;4.950;2022-07-21T07:10:45;15.35;;;7.57;;
21330;SDS011;10824;51.632;4.950;2022-07-21T07:13:12;15.73;;;7.32;;
21330;SDS011;10824;51.632;4.950;2022-07-21T07:16:01;15.63;;;7.55;;
21330;SDS011;10824;51.632;4.950;2022-07-21T07:18:28;15.07;;;6.80;;
21330;SDS011;10824;51.632;4.950;2022-07-21T07:20:55;12.88;;;6.97;;
21330;SDS011;10824;51.632;4.950;2022-07-21T07:23:23;11.95;;;5.53;;
21330;SDS011;10824;51.632;4.950;2022-07-21T07:25:50;11.40;;;5.55;;
21330;SDS011;10824;51.632;4.950;2022-07-21T07:28:17;8.02;;;5.15;;
21330;SDS011;10824;51.632;4.950;2022-07-21T07:30:44;14.55;;;6.45;;
21330;SDS011;10824;51.632;4.950;2022-07-21T07:33:11;10.55;;;6.30;;
21330;SDS011;10824;51.632;4.950;2022-07-21T07:35:38;13.13;;;6.30;;
21330;SDS011;10824;51.632;4.950;2022-07-21T07:38:05;11.20;;;6.03;;
21330;SDS011;10824;51.632;4.950;2022-07-21T07:40:32;11.00;;;5.80;;
21330;SDS011;10824;51.632;4.950;2022-07-21T07:43:02;11.30;;;5.90;;
21330;SDS011;10824;51.632;4.950;2022-07-21T07:45:34;10.80;;;5.30;;
21330;SDS011;10824;51.632;4.950;2022-07-21T07:48:02;9.30;;;5.22;;
21330;SDS011;10824;51.632;4.950;2022-07-21T07:50:30;10.18;;;5.90;;
21330;SDS011;10824;51.632;4.950;2022-07-21T07:52:58;12.82;;;5.90;;
21330;SDS011;10824;51.632;4.950;2022-07-21T07:55:25;13.68;;;6.18;;
21330;SDS011;10824;51.632;4.950;2022-07-21T07:57:53;11.18;;;5.80;;
21330;SDS011;10824;51.632;4.950;2022-07-21T08:00:21;10.02;;;5.70;;
21330;SDS011;10824;51.632;4.950;2022-07-21T08:03:08;10.13;;;4.72;;
21330;SDS011;10824;51.632;4.950;2022-07-21T08:05:36;10.70;;;5.57;;
21330;SDS011;10824;51.632;4.950;2022-07-21T08:08:03;9.38;;;4.93;;
21330;SDS011;10824;51.632;4.950;2022-07-21T08:10:30;8.25;;;5.18;;
21330;SDS011;10824;51.632;4.950;2022-07-21T08:13:08;10.32;;;5.00;;
21330;SDS011;10824;51.632;4.950;2022-07-21T08:15:37;7.43;;;5.13;;
21330;SDS011;10824;51.632;4.950;2022-07-21T08:18:04;7.18;;;4.15;;
21330;SDS011;10824;51.632;4.950;2022-07-21T08:20:33;6.65;;;4.40;;
21330;SDS011;10824;51.632;4.950;2022-07-21T08:23:01;7.53;;;4.50;;
21330;SDS011;10824;51.632;4.950;2022-07-21T08:25:29;6.28;;;3.40;;
21330;SDS011;10824;51.632;4.950;2022-07-21T08:27:56;6.75;;;4.05;;
21330;SDS011;10824;51.632;4.950;2022-07-21T08:30:23;7.03;;;3.67;;
21330;SDS011;10824;51.632;4.950;2022-07-21T08:32:56;4.43;;;2.80;;
21330;SDS011;10824;51.632;4.950;2022-07-21T08:35:24;5.75;;;2.60;;
21330;SDS011;10824;51.632;4.950;2022-07-21T08:37:53;7.15;;;4.40;;
21330;SDS011;10824;51.632;4.950;2022-07-21T08:40:22;5.35;;;2.97;;
21330;SDS011;10824;51.632;4.950;2022-07-21T08:42:51;6.10;;;2.95;;
21330;SDS011;10824;51.632;4.950;2022-07-21T08:45:21;8.48;;;2.75;;
21330;SDS011;10824;51.632;4.950;2022-07-21T08:47:51;5.82;;;2.90;;
21330;SDS011;10824;51.632;4.950;2022-07-21T08:50:19;3.72;;;2.40;;
21330;SDS011;10824;51.632;4.950;2022-07-21T08:52:48;5.93;;;1.65;;
21330;SDS011;10824;51.632;4.950;2022-07-21T08:55:24;2.70;;;1.60;;
21330;SDS011;10824;51.632;4.950;2022-07-21T08:57:55;2.40;;;1.30;;
21330;SDS011;10824;51.632;4.950;2022-07-21T09:00:23;2.67;;;1.30;;
21330;SDS011;10824;51.632;4.950;2022-07-21T09:05:41;1.25;;;0.75;;
21330;SDS011;10824;51.632;4.950;2022-07-21T09:08:11;1.83;;;1.05;;
21330;SDS011;10824;51.632;4.950;2022-07-21T09:10:38;1.08;;;0.98;;
21330;SDS011;10824;51.632;4.950;2022-07-21T09:13:06;1.65;;;1.00;;
21330;SDS011;10824;51.632;4.950;2022-07-21T09:15:33;2.00;;;1.10;;
21330;SDS011;10824;51.632;4.950;2022-07-21T09:18:08;2.63;;;1.38;;
21330;SDS011;10824;51.632;4.950;2022-07-21T09:20:46;2.10;;;1.13;;
21330;SDS011;10824;51.632;4.950;2022-07-21T09:23:17;1.60;;;1.20;;
21330;SDS011;10824;51.632;4.950;2022-07-21T09:25:49;2.67;;;1.35;;
21330;SDS011;10824;51.632;4.950;2022-07-21T09:28:20;3.80;;;1.17;;
21330;SDS011;10824;51.632;4.950;2022-07-21T09:30:57;2.20;;;1.13;;
21330;SDS011;10824;51.632;4.950;2022-07-21T09:38:32;3.42;;;1.33;;
21330;SDS011;10824;51.632;4.950;2022-07-21T09:41:06;2.03;;;1.10;;
21330;SDS011;10824;51.632;4.950;2022-07-21T09:43:38;3.88;;;1.80;;
21330;SDS011;10824;51.632;4.950;2022-07-21T09:46:11;1.50;;;1.10;;
21330;SDS011;10824;51.632;4.950;2022-07-21T09:48:44;2.72;;;1.23;;
21330;SDS011;10824;51.632;4.950;2022-07-21T09:51:37;3.35;;;1.58;;
21330;SDS011;10824;51.632;4.950;2022-07-21T09:54:07;2.28;;;1.30;;
21330;SDS011;10824;51.632;4.950;2022-07-21T09:56:40;2.42;;;1.20;;
21330;SDS011;10824;51.632;4.950;2022-07-21T09:59:09;4.45;;;1.80;;
21330;SDS011;10824;51.632;4.950;2022-07-21T10:01:37;1.75;;;1.30;;
21330;SDS011;10824;51.632;4.950;2022-07-21T10:04:05;2.75;;;1.40;;
21330;SDS011;10824;51.632;4.950;2022-07-21T10:06:35;5.32;;;1.75;;
21330;SDS011;10824;51.632;4.950;2022-07-21T10:09:05;4.20;;;1.90;;
21330;SDS011;10824;51.632;4.950;2022-07-21T10:11:37;6.07;;;1.55;;
21330;SDS011;10824;51.632;4.950;2022-07-21T10:14:08;6.53;;;1.70;;
21330;SDS011;10824;51.632;4.950;2022-07-21T10:16:36;3.35;;;1.70;;
21330;SDS011;10824;51.632;4.950;2022-07-21T10:24:26;2.28;;;1.70;;
21330;SDS011;10824;51.632;4.950;2022-07-21T10:27:05;4.82;;;1.95;;
21330;SDS011;10824;51.632;4.950;2022-07-21T10:32:16;4.50;;;2.20;;
21330;SDS011;10824;51.632;4.950;2022-07-21T10:34:44;4.30;;;1.75;;
21330;SDS011;10824;51.632;4.950;2022-07-21T10:37:19;4.28;;;1.90;;
21330;SDS011;10824;51.632;4.950;2022-07-21T10:45:35;5.00;;;1.83;;
21330;SDS011;10824;51.632;4.950;2022-07-21T10:48:05;4.80;;;1.95;;
21330;SDS011;10824;51.632;4.950;2022-07-21T10:50:38;3.40;;;1.52;;
21330;SDS011;10824;51.632;4.950;2022-07-21T10:53:16;3.72;;;1.95;;
21330;SDS011;10824;51.632;4.950;2022-07-21T10:55:51;4.40;;;1.77;;
21330;SDS011;10824;51.632;4.950;2022-07-21T11:04:14;6.00;;;1.73;;
21330;SDS011;10824;51.632;4.950;2022-07-21T11:09:16;5.80;;;1.30;;
21330;SDS011;10824;51.632;4.950;2022-07-21T11:14:15;2.47;;;1.10;;
21330;SDS011;10824;51.632;4.950;2022-07-21T11:19:34;1.27;;;0.93;;
21330;SDS011;10824;51.632;4.950;2022-07-21T11:22:22;2.78;;;1.10;;
21330;SDS011;10824;51.632;4.950;2022-07-21T11:24:55;2.33;;;1.30;;
21330;SDS011;10824;51.632;4.950;2022-07-21T11:27:29;4.13;;;1.40;;
21330;SDS011;10824;51.632;4.950;2022-07-21T11:30:07;2.20;;;1.48;;
21330;SDS011;10824;51.632;4.950;2022-07-21T11:32:35;1.63;;;1.20;;
21330;SDS011;10824;51.632;4.950;2022-07-21T11:35:04;2.25;;;1.50;;
21330;SDS011;10824;51.632;4.950;2022-07-21T11:37:33;1.88;;;1.05;;
21330;SDS011;10824;51.632;4.950;2022-07-21T11:40:06;2.20;;;1.27;;
21330;SDS011;10824;51.632;4.950;2022-07-21T11:42:37;1.50;;;1.13;;
21330;SDS011;10824;51.632;4.950;2022-07-21T11:45:06;2.67;;;1.33;;
21330;SDS011;10824;51.632;4.950;2022-07-21T11:47:35;2.22;;;1.50;;
21330;SDS011;10824;51.632;4.950;2022-07-21T11:50:05;5.28;;;2.17;;
21330;SDS011;10824;51.632;4.950;2022-07-21T11:52:36;3.80;;;2.03;;
21330;SDS011;10824;51.632;4.950;2022-07-21T11:57:34;1.17;;;1.00;;
21330;SDS011;10824;51.632;4.950;2022-07-21T12:00:02;2.05;;;1.17;;
21330;SDS011;10824;51.632;4.950;2022-07-21T12:02:38;2.33;;;1.00;;
21330;SDS011;10824;51.632;4.950;2022-07-21T12:05:06;2.05;;;1.35;;
21330;SDS011;10824;51.632;4.950;2022-07-21T12:07:38;4.95;;;1.45;;
21330;SDS011;10824;51.632;4.950;2022-07-21T12:10:13;1.45;;;1.15;;
21330;SDS011;10824;51.632;4.950;2022-07-21T12:12:45;3.63;;;1.70;;
21330;SDS011;10824;51.632;4.950;2022-07-21T12:17:56;3.00;;;1.13;;
21330;SDS011;10824;51.632;4.950;2022-07-21T12:20:34;2.30;;;1.25;;
21330;SDS011;10824;51.632;4.950;2022-07-21T12:23:24;3.30;;;1.60;;
21330;SDS011;10824;51.632;4.950;2022-07-21T12:25:55;3.15;;;1.40;;
21330;SDS011;10824;51.632;4.950;2022-07-21T12:31:17;1.90;;;1.42;;
21330;SDS011;10824;51.632;4.950;2022-07-21T12:33:51;1.65;;;1.15;;
21330;SDS011;10824;51.632;4.950;2022-07-21T12:36:39;2.70;;;1.00;;
21330;SDS011;10824;51.632;4.950;2022-07-21T12:39:28;1.45;;;0.95;;
21330;SDS011;10824;51.632;4.950;2022-07-21T12:42:32;4.05;;;1.20;;
21330;SDS011;10824;51.632;4.950;2022-07-21T12:45:14;1.83;;;1.00;;
21330;SDS011;10824;51.632;4.950;2022-07-21T12:50:36;1.80;;;1.15;;
21330;SDS011;10824;51.632;4.950;2022-07-21T12:53:05;1.70;;;0.82;;
21330;SDS011;10824;51.632;4.950;2022-07-21T12:55:35;2.75;;;1.35;;
21330;SDS011;10824;51.632;4.950;2022-07-21T12:58:03;2.75;;;1.33;;
21330;SDS011;10824;51.632;4.950;2022-07-21T13:00:31;2.00;;;0.95;;
21330;SDS011;10824;51.632;4.950;2022-07-21T13:02:58;3.85;;;1.17;;
21330;SDS011;10824;51.632;4.950;2022-07-21T13:05:25;4.05;;;1.60;;
21330;SDS011;10824;51.632;4.950;2022-07-21T13:07:53;2.85;;;1.92;;
21330;SDS011;10824;51.632;4.950;2022-07-21T13:10:21;3.33;;;1.42;;
21330;SDS011;10824;51.632;4.950;2022-07-21T13:12:49;2.65;;;1.60;;
21330;SDS011;10824;51.632;4.950;2022-07-21T13:15:17;3.47;;;1.58;;
21330;SDS011;10824;51.632;4.950;2022-07-21T13:17:45;4.88;;;1.65;;
21330;SDS011;10824;51.632;4.950;2022-07-21T13:20:12;3.05;;;1.70;;
21330;SDS011;10824;51.632;4.950;2022-07-21T13:22:41;5.05;;;1.75;;
21330;SDS011;10824;51.632;4.950;2022-07-21T13:25:11;4.57;;;1.70;;
21330;SDS011;10824;51.632;4.950;2022-07-21T13:27:40;7.18;;;1.83;;
21330;SDS011;10824;51.632;4.950;2022-07-21T13:30:13;3.70;;;2.00;;
21330;SDS011;10824;51.632;4.950;2022-07-21T13:32:43;2.13;;;1.88;;
21330;SDS011;10824;51.632;4.950;2022-07-21T13:35:10;4.70;;;2.20;;
21330;SDS011;10824;51.632;4.950;2022-07-21T13:37:54;7.20;;;2.00;;
21330;SDS011;10824;51.632;4.950;2022-07-21T13:40:21;3.30;;;1.70;;
21330;SDS011;10824;51.632;4.950;2022-07-21T13:43:11;4.95;;;1.90;;
21330;SDS011;10824;51.632;4.950;2022-07-21T13:45:58;4.65;;;1.83;;
21330;SDS011;10824;51.632;4.950;2022-07-21T13:48:27;3.40;;;1.65;;
21330;SDS011;10824;51.632;4.950;2022-07-21T13:50:54;3.15;;;2.03;;
21330;SDS011;10824;51.632;4.950;2022-07-21T13:53:21;3.83;;;1.50;;
21330;SDS011;10824;51.632;4.950;2022-07-21T13:55:49;3.55;;;1.67;;
21330;SDS011;10824;51.632;4.950;2022-07-21T13:58:20;2.58;;;1.52;;
21330;SDS011;10824;51.632;4.950;2022-07-21T14:00:47;3.58;;;2.13;;
21330;SDS011;10824;51.632;4.950;2022-07-21T14:03:15;4.45;;;2.08;;
21330;SDS011;10824;51.632;4.950;2022-07-21T14:05:42;8.95;;;2.03;;
21330;SDS011;10824;51.632;4.950;2022-07-21T14:08:10;4.72;;;1.83;;
21330;SDS011;10824;51.632;4.950;2022-07-21T14:10:37;3.78;;;2.08;;
21330;SDS011;10824;51.632;4.950;2022-07-21T14:13:04;4.07;;;2.22;;
21330;SDS011;10824;51.632;4.950;2022-07-21T14:15:31;4.45;;;2.13;;
21330;SDS011;10824;51.632;4.950;2022-07-21T14:17:59;4.03;;;3.10;;
21330;SDS011;10824;51.632;4.950;2022-07-21T14:20:26;7.70;;;1.67;;
21330;SDS011;10824;51.632;4.950;2022-07-21T14:22:54;2.38;;;1.55;;
21330;SDS011;10824;51.632;4.950;2022-07-21T14:25:21;3.50;;;1.98;;
21330;SDS011;10824;51.632;4.950;2022-07-21T14:27:50;4.97;;;2.00;;
21330;SDS011;10824;51.632;4.950;2022-07-21T14:30:21;2.35;;;1.60;;
21330;SDS011;10824;51.632;4.950;2022-07-21T14:32:49;3.95;;;2.17;;
21330;SDS011;10824;51.632;4.950;2022-07-21T14:35:16;4.45;;;2.05;;
21330;SDS011;10824;51.632;4.950;2022-07-21T14:37:49;4.28;;;2.05;;
21330;SDS011;10824;51.632;4.950;2022-07-21T14:40:17;6.93;;;1.92;;
21330;SDS011;10824;51.632;4.950;2022-07-21T14:42:45;3.03;;;1.58;;
21330;SDS011;10824;51.632;4.950;2022-07-21T14:45:14;4.95;;;1.90;;
21330;SDS011;10824;51.632;4.950;2022-07-21T14:47:51;5.43;;;2.03;;
21330;SDS011;10824;51.632;4.950;2022-07-21T14:50:19;6.97;;;1.92;;
21330;SDS011;10824;51.632;4.950;2022-07-21T14:52:52;5.32;;;2.03;;
21330;SDS011;10824;51.632;4.950;2022-07-21T14:55:21;4.60;;;1.60;;
21330;SDS011;10824;51.632;4.950;2022-07-21T14:57:51;3.45;;;1.92;;
21330;SDS011;10824;51.632;4.950;2022-07-21T15:00:20;2.97;;;1.33;;
21330;SDS011;10824;51.632;4.950;2022-07-21T15:02:47;4.57;;;1.60;;
21330;SDS011;10824;51.632;4.950;2022-07-21T15:05:15;1.70;;;1.00;;
21330;SDS011;10824;51.632;4.950;2022-07-21T15:07:42;2.65;;;1.10;;
21330;SDS011;10824;51.632;4.950;2022-07-21T15:10:09;4.05;;;1.45;;
21330;SDS011;10824;51.632;4.950;2022-07-21T15:12:36;4.53;;;1.10;;
21330;SDS011;10824;51.632;4.950;2022-07-21T15:15:03;2.97;;;0.98;;
21330;SDS011;10824;51.632;4.950;2022-07-21T15:17:31;3.47;;;0.90;;
21330;SDS011;10824;51.632;4.950;2022-07-21T15:19:58;2.70;;;1.10;;
21330;SDS011;10824;51.632;4.950;2022-07-21T15:22:27;3.53;;;1.10;;
21330;SDS011;10824;51.632;4.950;2022-07-21T15:25:00;2.10;;;1.10;;
21330;SDS011;10824;51.632;4.950;2022-07-21T15:27:28;2.75;;;1.08;;
21330;SDS011;10824;51.632;4.950;2022-07-21T15:29:55;3.47;;;1.17;;
21330;SDS011;10824;51.632;4.950;2022-07-21T15:32:22;3.22;;;1.00;;
21330;SDS011;10824;51.632;4.950;2022-07-21T15:34:49;3.17;;;0.82;;
21330;SDS011;10824;51.632;4.950;2022-07-21T15:37:17;10.70;;;1.45;;
21330;SDS011;10824;51.632;4.950;2022-07-21T15:39:44;5.28;;;1.58;;
21330;SDS011;10824;51.632;4.950;2022-07-21T15:42:12;3.33;;;1.25;;
21330;SDS011;10824;51.632;4.950;2022-07-21T15:44:39;3.42;;;1.20;;
21330;SDS011;10824;51.632;4.950;2022-07-21T15:47:06;4.35;;;1.10;;